createdAt,value
2022-11-10T00:02:21.899Z,49.78
2022-11-10T00:05:12.433Z,52.20
2022-11-10T00:08:05.210Z,51.30
2022-11-10T00:11:02.099Z,46.50
2022-11-10T00:14:08.958Z,50.13
2022-11-10T00:17:04.841Z,47.20
2022-11-10T00:19:53.632Z,48.00
2022-11-10T00:22:43.567Z,47.20
2022-11-10T00:25:33.825Z,46.65
2022-11-10T00:28:22.041Z,45.67
2022-11-10T00:31:11.206Z,47.83
2022-11-10T00:34:00.052Z,43.40
2022-11-10T00:36:47.531Z,46.85
2022-11-10T00:39:38.504Z,46.35
2022-11-10T00:42:26.754Z,44.28
2022-11-10T00:45:15.356Z,45.97
2022-11-10T00:48:04.053Z,45.53
2022-11-10T00:50:53.553Z,47.20
2022-11-10T00:53:42.071Z,47.70
2022-11-10T00:56:31.492Z,52.53
2022-11-10T00:59:20.718Z,46.75
2022-11-10T01:02:09.739Z,50.75
2022-11-10T01:04:58.902Z,51.25
2022-11-10T01:07:47.147Z,52.50
2022-11-10T01:10:35.842Z,46.95
2022-11-10T01:13:26.098Z,48.75
2022-11-10T01:16:16.299Z,45.53
2022-11-10T01:19:05.411Z,42.55
2022-11-10T01:21:54.355Z,43.55
2022-11-10T01:24:42.829Z,45.75
2022-11-10T01:27:31.245Z,46.53
2022-11-10T01:30:22.163Z,49.75
2022-11-10T01:33:10.364Z,48.33
2022-11-10T01:35:58.463Z,38.85
2022-11-10T01:38:46.825Z,34.70
2022-11-10T01:41:34.844Z,40.60
2022-11-10T01:44:25.191Z,44.65
2022-11-10T01:47:15.322Z,39.55
2022-11-10T01:50:03.561Z,38.60
2022-11-10T01:52:53.204Z,40.83
2022-11-10T01:55:45.134Z,38.58
2022-11-10T01:58:40.158Z,39.38
2022-11-10T02:01:30.593Z,34.60
2022-11-10T02:04:21.967Z,37.58
2022-11-10T02:07:11.880Z,43.55
2022-11-10T02:09:59.969Z,40.58
2022-11-10T02:12:49.175Z,36.90
2022-11-10T02:15:42.977Z,35.90
2022-11-10T02:18:38.079Z,43.67
2022-11-10T02:21:34.435Z,41.38
2022-11-10T02:24:23.134Z,39.55
2022-11-10T02:27:11.133Z,35.35
2022-11-10T02:30:01.165Z,39.67
2022-11-10T02:32:50.994Z,36.85
2022-11-10T02:35:39.238Z,37.20
2022-11-10T02:38:28.764Z,37.55
2022-11-10T02:41:16.552Z,38.15
2022-11-10T02:44:06.292Z,44.30
2022-11-10T02:46:54.819Z,35.30
2022-11-10T02:49:45.116Z,37.80
2022-11-10T02:52:34.201Z,36.42
2022-11-10T02:55:23.730Z,38.83
2022-11-10T02:58:11.953Z,40.40
2022-11-10T03:01:00.107Z,37.78
2022-11-10T03:03:49.723Z,34.60
2022-11-10T03:06:38.147Z,37.15
2022-11-10T03:09:26.508Z,37.28
2022-11-10T03:12:15.959Z,35.40
2022-11-10T03:15:03.974Z,34.75
2022-11-10T03:17:52.617Z,37.72
2022-11-10T03:20:41.297Z,32.08
2022-11-10T03:23:29.912Z,35.75
2022-11-10T03:26:18.258Z,32.72
2022-11-10T03:29:07.494Z,31.50
2022-11-10T03:31:56.288Z,35.35
2022-11-10T03:34:45.654Z,31.35
2022-11-10T03:37:34.345Z,31.30
2022-11-10T03:40:22.526Z,32.15
2022-11-10T03:43:13.431Z,29.40
2022-11-10T03:46:03.423Z,31.85
2022-11-10T03:48:53.811Z,32.28
2022-11-10T03:51:41.868Z,33.92
2022-11-10T03:54:30.503Z,32.72
2022-11-10T03:57:19.055Z,30.73
2022-11-10T04:00:09.724Z,28.35
2022-11-10T04:02:59.928Z,27.10
2022-11-10T04:06:06.900Z,28.00
2022-11-10T04:09:01.504Z,29.90
2022-11-10T04:12:07.496Z,28.55
2022-11-10T04:15:15.096Z,29.30
2022-11-10T04:18:19.410Z,26.65
2022-11-10T04:21:08.074Z,36.33
2022-11-10T04:23:56.584Z,27.05
2022-11-10T04:26:48.769Z,29.35
2022-11-10T04:29:37.318Z,30.08
2022-11-10T04:32:25.523Z,29.90
2022-11-10T04:35:15.356Z,29.40
2022-11-10T04:38:03.382Z,27.98
2022-11-10T04:40:51.726Z,31.90
2022-11-10T04:43:41.515Z,32.38
2022-11-10T04:46:31.600Z,29.10
2022-11-10T04:49:20.455Z,25.27
2022-11-10T04:52:09.717Z,31.30
2022-11-10T04:54:57.430Z,30.50
2022-11-10T04:57:45.684Z,26.75
2022-11-10T05:00:34.417Z,24.40
2022-11-10T05:03:29.627Z,25.52
2022-11-10T05:06:18.698Z,29.25
2022-11-10T05:09:08.538Z,25.52
2022-11-10T05:11:58.337Z,28.85
2022-11-10T05:14:46.610Z,28.33
2022-11-10T05:17:37.877Z,30.33
2022-11-10T05:20:29.459Z,28.83
2022-11-10T05:23:34.958Z,29.10
2022-11-10T05:26:26.083Z,31.65
2022-11-10T05:29:15.640Z,28.25
2022-11-10T05:32:04.556Z,26.73
2022-11-10T05:34:53.003Z,26.60
2022-11-10T05:37:45.557Z,26.98
2022-11-10T05:40:34.833Z,29.98
2022-11-10T05:43:25.669Z,28.17
2022-11-10T05:46:14.930Z,29.70
2022-11-10T05:49:06.440Z,28.42
2022-11-10T05:52:32.577Z,24.13
2022-11-10T05:55:26.336Z,29.75
2022-11-10T05:58:14.823Z,31.30
2022-11-10T06:01:05.995Z,26.30
2022-11-10T06:03:54.380Z,29.25
2022-11-10T06:06:43.467Z,30.17
2022-11-10T06:09:31.324Z,26.25
2022-11-10T06:12:19.828Z,25.67
2022-11-10T06:15:12.604Z,30.98
2022-11-10T06:18:02.853Z,27.55
2022-11-10T06:20:52.666Z,28.95
2022-11-10T06:23:41.018Z,28.70
2022-11-10T06:26:29.017Z,27.55
2022-11-10T06:29:18.049Z,29.23
2022-11-10T06:32:08.378Z,28.10
2022-11-10T06:35:00.710Z,27.70
2022-11-10T06:38:00.297Z,29.70
2022-11-10T06:40:48.113Z,31.70
2022-11-10T06:43:37.949Z,32.55
2022-11-10T06:46:26.759Z,25.98
2022-11-10T06:49:14.972Z,31.80
2022-11-10T06:52:04.835Z,31.10
2022-11-10T06:54:53.435Z,27.48
2022-11-10T06:57:41.939Z,28.50
2022-11-10T07:00:32.399Z,25.15
2022-11-10T07:03:21.738Z,28.17
2022-11-10T07:06:10.105Z,28.27
2022-11-10T07:08:59.643Z,36.47
2022-11-10T07:11:47.670Z,32.17
2022-11-10T07:14:35.827Z,36.75
2022-11-10T07:17:25.605Z,36.05
2022-11-10T07:20:13.944Z,38.42
2022-11-10T07:23:04.183Z,42.85
2022-11-10T07:26:22.175Z,44.28
2022-11-10T07:29:10.285Z,35.95
2022-11-10T07:31:59.009Z,36.17
2022-11-10T07:34:46.643Z,39.92
2022-11-10T07:37:35.278Z,30.77
2022-11-10T07:40:24.275Z,33.88
2022-11-10T07:43:13.498Z,29.13
2022-11-10T07:46:01.812Z,27.48
2022-11-10T07:48:49.730Z,31.90
2022-11-10T07:51:38.039Z,26.42
2022-11-10T07:54:26.732Z,28.42
2022-11-10T07:57:14.961Z,24.92
2022-11-10T08:00:05.456Z,26.98
2022-11-10T08:02:53.694Z,27.92
2022-11-10T08:05:42.695Z,23.55
2022-11-10T08:08:33.721Z,27.48
2022-11-10T08:11:22.262Z,28.40
2022-11-10T08:14:10.451Z,26.02
2022-11-10T08:16:59.789Z,29.80
2022-11-10T08:19:48.685Z,27.40
2022-11-10T08:22:36.424Z,35.58
2022-11-10T08:25:24.320Z,25.30
2022-11-10T08:28:14.139Z,28.90
2022-11-10T08:31:06.231Z,26.85
2022-11-10T08:33:55.491Z,28.63
2022-11-10T08:36:43.640Z,27.52
2022-11-10T08:39:39.163Z,26.73
2022-11-10T08:42:27.353Z,26.67
2022-11-10T08:45:16.367Z,28.85
2022-11-10T08:48:06.245Z,25.08
2022-11-10T08:50:56.433Z,28.20
2022-11-10T08:53:45.708Z,26.73
2022-11-10T08:56:33.794Z,26.85
2022-11-10T08:59:22.496Z,30.17
2022-11-10T09:02:11.345Z,28.42
2022-11-10T09:04:59.941Z,31.42
2022-11-10T09:07:51.367Z,26.40
2022-11-10T09:10:42.439Z,26.40
2022-11-10T09:13:30.979Z,32.03
2022-11-10T09:16:19.183Z,28.55
2022-11-10T09:19:13.164Z,25.88
2022-11-10T09:22:03.779Z,25.95
2022-11-10T09:24:52.874Z,29.17
2022-11-10T09:27:41.179Z,28.63
2022-11-10T09:30:29.530Z,28.13
2022-11-10T09:33:18.274Z,31.38
2022-11-10T09:36:07.198Z,31.17
2022-11-10T09:38:56.928Z,31.52
2022-11-10T09:41:47.306Z,30.50
2022-11-10T09:44:40.561Z,28.90
2022-11-10T09:50:50.611Z,28.50
2022-11-10T09:53:43.067Z,29.55
2022-11-10T09:56:35.336Z,28.55
2022-11-10T09:59:29.520Z,31.15
2022-11-10T10:02:27.230Z,30.75
2022-11-10T10:05:37.103Z,26.40
2022-11-10T10:08:33.843Z,29.38
2022-11-10T10:11:31.136Z,33.17
2022-11-10T10:14:35.757Z,26.08
2022-11-10T10:17:29.888Z,28.38
2022-11-10T10:20:25.362Z,28.67
2022-11-10T10:23:40.463Z,30.95
2022-11-10T10:26:34.175Z,26.77
2022-11-10T10:29:25.683Z,27.90
2022-11-10T10:32:17.404Z,24.92
2022-11-10T10:35:07.128Z,30.00
2022-11-10T10:37:58.922Z,26.42
2022-11-10T10:40:50.239Z,30.40
2022-11-10T10:43:38.810Z,31.45
2022-11-10T10:46:35.773Z,30.95
2022-11-10T10:49:30.813Z,30.27
2022-11-10T10:52:25.150Z,32.53
2022-11-10T10:55:15.125Z,28.58
2022-11-10T10:58:05.750Z,26.80
2022-11-10T11:00:57.645Z,30.25
2022-11-10T11:03:48.375Z,30.02
2022-11-10T11:06:38.183Z,31.08
2022-11-10T11:09:31.533Z,32.85
2022-11-10T11:12:31.560Z,31.63
2022-11-10T11:15:28.442Z,31.42
2022-11-10T11:18:18.706Z,34.38
2022-11-10T11:21:14.310Z,33.80
2022-11-10T11:27:05.259Z,31.98
2022-11-10T11:30:07.258Z,36.65
2022-11-10T11:33:48.345Z,32.97
2022-11-10T11:36:51.603Z,33.13
2022-11-10T11:39:54.564Z,32.05
2022-11-10T11:42:56.132Z,34.05
2022-11-10T11:45:51.947Z,33.67
2022-11-10T11:48:57.669Z,30.98
2022-11-10T11:51:57.315Z,36.13
2022-11-10T11:55:01.589Z,38.30
2022-11-10T12:01:07.132Z,31.10
2022-11-10T12:04:23.625Z,32.53
2022-11-10T12:07:35.956Z,37.83
2022-11-10T12:10:40.527Z,33.92
2022-11-10T12:13:41.542Z,38.30
2022-11-10T12:16:32.340Z,34.35
2022-11-10T12:19:37.266Z,34.45
2022-11-10T12:22:35.632Z,34.00
2022-11-10T12:25:35.255Z,37.40
2022-11-10T12:28:27.641Z,38.28
2022-11-10T12:31:26.492Z,37.50
2022-11-10T12:34:21.645Z,38.67
2022-11-10T12:37:27.976Z,37.45
2022-11-10T12:40:27.533Z,40.30
2022-11-10T12:43:22.170Z,42.30
2022-11-10T12:46:16.560Z,39.17
2022-11-10T12:49:16.068Z,40.70
2022-11-10T12:52:12.818Z,42.08
2022-11-10T12:55:02.295Z,41.33
2022-11-10T12:57:55.845Z,35.03
2022-11-10T13:00:46.970Z,39.45
2022-11-10T13:03:39.472Z,35.47
2022-11-10T13:06:31.913Z,37.28
2022-11-10T13:09:26.289Z,39.13
2022-11-10T13:12:23.757Z,36.30
2022-11-10T13:15:48.405Z,37.80
2022-11-10T13:19:02.275Z,33.80
2022-11-10T13:22:11.286Z,37.35
2022-11-10T13:25:37.850Z,33.33
2022-11-10T13:29:06.901Z,33.67
2022-11-10T13:31:58.319Z,41.63
2022-11-10T13:34:47.845Z,34.13
2022-11-10T13:37:50.895Z,27.85
2022-11-10T13:40:41.092Z,27.67
2022-11-10T13:43:30.553Z,30.35
2022-11-10T13:46:20.742Z,31.95
2022-11-10T13:49:26.436Z,27.55
2022-11-10T13:52:19.520Z,27.92
2022-11-10T13:55:21.206Z,29.88
2022-11-10T13:58:13.783Z,30.42
2022-11-10T14:01:26.263Z,30.23
2022-11-10T14:04:40.160Z,24.50
2022-11-10T14:07:39.217Z,29.80
2022-11-10T14:10:39.916Z,30.58
2022-11-10T14:13:40.352Z,29.92
2022-11-10T14:16:32.322Z,28.63
2022-11-10T14:19:35.113Z,45.88
2022-11-10T14:22:35.554Z,31.57
2022-11-10T14:25:29.940Z,30.15
2022-11-10T14:28:27.211Z,29.00
2022-11-10T14:31:20.668Z,29.77
2022-11-10T14:34:16.909Z,32.63
2022-11-10T14:37:19.288Z,27.80
2022-11-10T14:40:18.539Z,31.98
2022-11-10T14:43:08.469Z,34.13
2022-11-10T14:45:58.770Z,28.17
2022-11-10T14:48:59.813Z,33.55
2022-11-10T14:52:00.659Z,32.47
2022-11-10T14:54:49.510Z,31.13
2022-11-10T14:57:40.873Z,32.47
2022-11-10T15:00:51.666Z,32.20
2022-11-10T15:03:44.369Z,29.17
2022-11-10T15:06:41.869Z,37.65
2022-11-10T15:09:35.436Z,36.63
2022-11-10T15:12:27.483Z,34.00
2022-11-10T15:15:23.620Z,34.33
2022-11-10T15:18:26.447Z,39.38
2022-11-10T15:21:18.066Z,34.50
2022-11-10T15:24:08.633Z,33.25
2022-11-10T15:26:57.707Z,39.70
2022-11-10T15:30:23.432Z,37.63
2022-11-10T15:33:22.998Z,38.25
2022-11-10T15:36:28.767Z,35.85
2022-11-10T15:39:23.614Z,34.60
2022-11-10T15:42:16.909Z,37.75
2022-11-10T15:45:06.672Z,37.38
2022-11-10T15:47:58.109Z,36.78
2022-11-10T15:50:50.389Z,35.83
2022-11-10T15:53:42.672Z,35.47
2022-11-10T15:56:34.166Z,32.30
2022-11-10T15:59:24.758Z,34.53
2022-11-10T16:02:21.961Z,37.72
2022-11-10T16:05:13.556Z,42.97
2022-11-10T16:08:02.708Z,31.35
2022-11-10T16:10:56.884Z,39.03
2022-11-10T16:16:35.064Z,40.28
2022-11-10T16:19:23.734Z,36.08
2022-11-10T16:22:12.752Z,35.70
2022-11-10T16:25:00.721Z,36.55
2022-11-10T16:27:50.312Z,36.20
2022-11-10T16:30:38.336Z,35.33
2022-11-10T16:33:27.963Z,39.78
2022-11-10T16:36:26.280Z,37.17
2022-11-10T16:39:15.401Z,37.95
2022-11-10T16:42:03.352Z,38.83
2022-11-10T16:44:52.894Z,34.85
2022-11-10T16:47:41.636Z,35.05
2022-11-10T16:50:35.474Z,32.78
2022-11-10T16:53:25.499Z,34.50
2022-11-10T16:56:15.916Z,34.50
2022-11-10T16:59:04.813Z,36.58
2022-11-10T17:01:55.355Z,29.27
2022-11-10T17:04:43.637Z,32.53
2022-11-10T17:07:31.759Z,32.42
2022-11-10T17:10:22.050Z,30.52
2022-11-10T17:13:12.712Z,27.30
2022-11-10T17:16:05.958Z,25.75
2022-11-10T17:19:00.818Z,28.93
2022-11-10T17:21:52.930Z,26.30
2022-11-10T17:24:41.460Z,25.88
2022-11-10T17:27:33.971Z,25.38
2022-11-10T17:30:25.447Z,29.90
2022-11-10T17:33:18.819Z,29.95
2022-11-10T17:36:15.640Z,25.80
2022-11-10T17:39:04.555Z,26.60
2022-11-10T17:41:52.750Z,26.67
2022-11-10T17:44:41.191Z,22.70
2022-11-10T17:47:29.139Z,23.83
2022-11-10T17:50:18.401Z,21.67
2022-11-10T17:53:40.554Z,27.80
2022-11-10T17:56:29.980Z,23.15
2022-11-10T17:59:18.359Z,27.10
2022-11-10T18:02:10.472Z,21.38
2022-11-10T18:05:00.240Z,23.10
2022-11-10T18:07:51.359Z,22.27
2022-11-10T18:10:42.860Z,24.88
2022-11-10T18:13:31.199Z,22.30
2022-11-10T18:16:19.436Z,21.85
2022-11-10T18:19:07.486Z,20.30
2022-11-10T18:21:56.305Z,24.33
2022-11-10T18:24:44.332Z,23.15
2022-11-10T18:27:36.832Z,18.65
2022-11-10T18:30:25.560Z,23.70
2022-11-10T18:33:15.408Z,19.65
2022-11-10T18:36:06.577Z,24.50
2022-11-10T18:39:03.771Z,28.88
2022-11-10T18:41:53.805Z,23.65
2022-11-10T18:44:44.161Z,24.00
2022-11-10T18:47:32.446Z,23.77
2022-11-10T18:50:20.801Z,24.05
2022-11-10T18:53:08.794Z,23.13
2022-11-10T18:55:57.432Z,23.60
2022-11-10T18:58:45.909Z,21.98
2022-11-10T19:01:35.487Z,24.20
2022-11-10T19:04:26.960Z,26.02
2022-11-10T19:07:17.324Z,21.80
2022-11-10T19:10:09.575Z,23.60
2022-11-10T19:13:02.414Z,24.45
2022-11-10T19:15:53.710Z,29.20
2022-11-10T19:18:48.129Z,24.42
2022-11-10T19:22:03.153Z,25.45
2022-11-10T19:25:09.623Z,28.13
2022-11-10T19:28:00.190Z,27.02
2022-11-10T19:31:02.127Z,26.15
2022-11-10T19:33:56.003Z,35.77
2022-11-10T19:36:51.683Z,30.27
2022-11-10T19:39:43.531Z,30.35
2022-11-10T19:42:34.303Z,31.00
2022-11-10T19:45:24.228Z,35.25
2022-11-10T19:48:16.016Z,31.80
2022-11-10T19:51:11.230Z,29.33
2022-11-10T19:54:03.606Z,31.95
2022-11-10T19:56:57.115Z,32.95
2022-11-10T19:59:51.928Z,27.98
2022-11-10T20:02:55.166Z,33.50
2022-11-10T20:05:49.551Z,36.13
2022-11-10T20:08:40.371Z,30.23
2022-11-10T20:11:30.832Z,33.33
2022-11-10T20:14:24.010Z,33.88
2022-11-10T20:17:16.956Z,28.63
2022-11-10T20:20:11.308Z,28.40
2022-11-10T20:23:06.940Z,29.98
2022-11-10T20:26:07.358Z,33.15
2022-11-10T20:29:14.877Z,36.13
2022-11-10T20:32:09.000Z,32.13
2022-11-10T20:35:00.423Z,32.97
2022-11-10T20:37:52.249Z,32.13
2022-11-10T20:41:05.967Z,31.80
2022-11-10T20:44:03.755Z,33.47
2022-11-10T20:46:54.764Z,34.40
2022-11-10T20:49:51.205Z,35.88
2022-11-10T20:52:49.590Z,29.98
2022-11-10T20:56:04.747Z,35.00
2022-11-10T20:59:04.009Z,33.10
2022-11-10T21:01:56.327Z,29.30
2022-11-10T21:04:47.164Z,32.63
2022-11-10T21:07:39.672Z,32.72
2022-11-10T21:10:28.494Z,30.00
2022-11-10T21:16:24.284Z,32.63
2022-11-10T21:19:12.272Z,36.00
2022-11-10T21:22:02.522Z,35.42
2022-11-10T21:24:52.298Z,32.88
2022-11-10T21:27:40.393Z,33.42
2022-11-10T21:30:32.585Z,33.22
2022-11-10T21:33:23.272Z,35.00
2022-11-10T21:36:12.795Z,39.58
2022-11-10T21:39:01.816Z,34.65
2022-11-10T21:41:54.566Z,30.95
2022-11-10T21:44:42.768Z,32.15
2022-11-10T21:47:31.729Z,28.42
2022-11-10T21:50:24.608Z,32.28
2022-11-10T21:53:18.903Z,31.25
2022-11-10T21:56:10.247Z,31.27
2022-11-10T21:59:14.511Z,39.42
2022-11-10T22:02:06.582Z,29.70
2022-11-10T22:04:55.441Z,36.95
2022-11-10T22:07:45.129Z,38.10
2022-11-10T22:10:54.182Z,29.08
2022-11-10T22:14:00.273Z,37.63
2022-11-10T22:17:09.203Z,34.88
2022-11-10T22:19:59.819Z,31.65
2022-11-10T22:22:51.569Z,33.35
2022-11-10T22:25:48.893Z,40.55
2022-11-10T22:28:38.155Z,36.30
2022-11-10T22:31:27.668Z,32.92
2022-11-10T22:34:18.902Z,30.02
2022-11-10T22:37:08.856Z,34.45
2022-11-10T22:40:18.619Z,33.83
2022-11-10T22:43:26.254Z,38.90
2022-11-10T22:46:14.844Z,31.60
2022-11-10T22:49:03.651Z,33.30
2022-11-10T22:51:52.823Z,36.60
2022-11-10T22:54:41.222Z,33.58
2022-11-10T22:57:31.368Z,38.38
2022-11-10T23:00:20.379Z,33.47
2022-11-10T23:03:09.201Z,39.78
2022-11-10T23:05:58.171Z,34.97
2022-11-10T23:08:46.340Z,33.30
2022-11-10T23:11:34.906Z,35.45
2022-11-10T23:14:24.437Z,35.42
2022-11-10T23:17:12.834Z,37.92
2022-11-10T23:20:01.165Z,35.50
2022-11-10T23:22:49.197Z,36.33
2022-11-10T23:25:37.392Z,31.92
2022-11-10T23:28:28.579Z,30.65
2022-11-10T23:31:24.170Z,37.97
2022-11-10T23:34:14.107Z,36.17
2022-11-10T23:37:05.302Z,35.25
2022-11-10T23:39:54.441Z,32.55
2022-11-10T23:42:43.003Z,31.88
2022-11-10T23:46:00.075Z,30.75
2022-11-10T23:48:42.445Z,39.13
2022-11-10T23:51:30.658Z,33.42
2022-11-10T23:54:20.060Z,31.48
2022-11-10T23:57:08.454Z,29.10
2022-11-10T23:59:57.888Z,33.05
